createdAt,value
2023-04-15T00:02:18.655Z,3.08
2023-04-15T00:05:08.097Z,3.50
2023-04-15T00:07:56.479Z,3.05
2023-04-15T00:10:46.530Z,3.22
2023-04-15T00:13:36.455Z,3.35
2023-04-15T00:16:25.004Z,3.50
2023-04-15T00:19:13.456Z,3.42
2023-04-15T00:22:01.891Z,2.88
2023-04-15T00:24:50.273Z,3.10
2023-04-15T00:27:39.212Z,3.20
2023-04-15T00:30:28.991Z,3.50
2023-04-15T00:33:17.608Z,3.58
2023-04-15T00:36:08.481Z,2.90
2023-04-15T00:38:56.893Z,3.30
2023-04-15T00:41:45.900Z,3.50
2023-04-15T00:44:34.793Z,3.20
2023-04-15T00:47:24.972Z,2.87
2023-04-15T00:50:14.221Z,3.10
2023-04-15T00:53:02.921Z,3.75
2023-04-15T00:55:52.040Z,3.47
2023-04-15T00:58:40.570Z,3.87
2023-04-15T01:01:29.688Z,3.70
2023-04-15T01:04:19.629Z,3.30
2023-04-15T01:07:08.163Z,3.43
2023-04-15T01:09:56.855Z,3.23
2023-04-15T01:12:45.867Z,3.30
2023-04-15T01:15:34.416Z,3.07
2023-04-15T01:18:23.796Z,3.40
2023-04-15T01:21:13.707Z,3.93
2023-04-15T01:24:05.319Z,3.17
2023-04-15T01:26:55.091Z,3.50
2023-04-15T01:29:45.575Z,3.57
2023-04-15T01:32:34.108Z,3.43
2023-04-15T01:35:23.947Z,3.77
2023-04-15T01:38:13.557Z,3.33
2023-04-15T01:41:02.167Z,3.77
2023-04-15T01:43:52.497Z,4.03
2023-04-15T01:46:41.090Z,4.30
2023-04-15T01:49:29.474Z,3.50
2023-04-15T01:52:18.321Z,3.60
2023-04-15T01:55:08.553Z,3.80
2023-04-15T01:57:58.553Z,3.47
2023-04-15T02:00:48.679Z,3.53
2023-04-15T02:03:37.292Z,4.17
2023-04-15T02:06:25.924Z,4.13
2023-04-15T02:09:14.566Z,3.90
2023-04-15T02:12:03.017Z,4.10
2023-04-15T02:14:51.406Z,3.97
2023-04-15T02:17:41.662Z,3.73
2023-04-15T02:20:32.063Z,3.93
2023-04-15T02:23:20.451Z,3.97
2023-04-15T02:26:09.035Z,4.10
2023-04-15T02:28:57.520Z,3.77
2023-04-15T02:31:46.168Z,3.90
2023-04-15T02:34:36.071Z,3.90
2023-04-15T02:37:28.638Z,4.07
2023-04-15T02:40:17.579Z,3.80
2023-04-15T02:43:07.319Z,4.00
2023-04-15T02:45:56.544Z,4.33
2023-04-15T02:48:44.971Z,4.33
2023-04-15T02:51:34.805Z,4.63
2023-04-15T02:54:23.865Z,4.03
2023-04-15T02:57:12.904Z,4.03
2023-04-15T03:00:01.316Z,4.10
2023-04-15T03:02:52.447Z,3.97
2023-04-15T03:05:41.117Z,3.73
2023-04-15T03:08:31.412Z,4.30
2023-04-15T03:11:21.326Z,4.00
2023-04-15T03:14:09.689Z,3.80
2023-04-15T03:17:02.020Z,5.07
2023-04-15T03:19:50.607Z,4.33
2023-04-15T03:22:39.338Z,4.20
2023-04-15T03:25:29.279Z,4.30
2023-04-15T03:28:17.768Z,4.90
2023-04-15T03:31:06.619Z,4.27
2023-04-15T03:33:55.134Z,4.30
2023-04-15T03:36:43.872Z,4.17
2023-04-15T03:39:32.186Z,3.70
2023-04-15T03:42:22.009Z,3.90
2023-04-15T03:45:11.843Z,4.87
2023-04-15T03:48:15.524Z,4.73
2023-04-15T03:51:04.976Z,5.00
2023-04-15T03:53:53.263Z,4.87
2023-04-15T03:56:41.821Z,4.63
2023-04-15T03:59:31.545Z,4.57
2023-04-15T04:02:20.172Z,4.80
2023-04-15T04:05:09.625Z,4.33
2023-04-15T04:07:58.016Z,4.80
2023-04-15T04:10:46.503Z,4.93
2023-04-15T04:13:34.802Z,4.70
2023-04-15T04:16:24.793Z,4.93
2023-04-15T04:19:14.649Z,5.03
2023-04-15T04:22:03.277Z,4.90
2023-04-15T04:24:51.578Z,4.83
2023-04-15T04:27:40.074Z,4.80
2023-04-15T04:30:28.614Z,4.47
2023-04-15T04:33:18.382Z,4.70
2023-04-15T04:36:07.754Z,4.90
2023-04-15T04:38:56.149Z,4.53
2023-04-15T04:41:45.988Z,4.67
2023-04-15T04:44:34.479Z,4.57
2023-04-15T04:47:23.146Z,4.60
2023-04-15T04:50:13.185Z,4.47
2023-04-15T04:53:01.750Z,4.53
2023-04-15T04:55:50.183Z,5.33
2023-04-15T04:58:38.748Z,5.27
2023-04-15T05:01:27.695Z,5.13
2023-04-15T05:04:16.370Z,4.57
2023-04-15T05:07:06.320Z,4.67
2023-04-15T05:09:54.948Z,4.33
2023-04-15T05:12:43.453Z,4.40
2023-04-15T05:15:32.896Z,4.93
2023-04-15T05:18:21.544Z,5.00
2023-04-15T05:21:10.402Z,4.83
2023-04-15T05:24:00.699Z,5.53
2023-04-15T05:26:49.256Z,4.73
2023-04-15T05:29:37.692Z,4.77
2023-04-15T05:32:26.458Z,5.10
2023-04-15T05:35:15.133Z,5.73
2023-04-15T05:38:03.647Z,4.63
2023-04-15T05:40:53.585Z,4.57
2023-04-15T05:43:42.214Z,5.43
2023-04-15T05:46:30.884Z,5.30
2023-04-15T05:49:19.411Z,5.43
2023-04-15T05:52:07.841Z,5.20
2023-04-15T05:54:56.400Z,5.43
2023-04-15T05:57:46.472Z,5.53
2023-04-15T06:00:35.101Z,5.77
2023-04-15T06:03:24.150Z,5.50
2023-04-15T06:06:13.400Z,6.00
2023-04-15T06:09:02.082Z,5.00
2023-04-15T06:11:50.844Z,5.53
2023-04-15T06:14:41.338Z,5.83
2023-04-15T06:17:29.875Z,5.30
2023-04-15T06:20:18.823Z,5.73
2023-04-15T06:23:07.463Z,5.80
2023-04-15T06:25:55.957Z,5.83
2023-04-15T06:28:44.388Z,6.13
2023-04-15T06:31:35.881Z,5.97
2023-04-15T06:34:24.323Z,6.03
2023-04-15T06:37:16.088Z,6.13
2023-04-15T06:40:05.377Z,6.87
2023-04-15T06:42:54.026Z,6.70
2023-04-15T06:45:42.439Z,7.33
2023-04-15T06:48:32.312Z,7.47
2023-04-15T06:51:21.142Z,7.37
2023-04-15T06:54:09.649Z,7.67
2023-04-15T06:56:58.182Z,7.27
2023-04-15T06:59:47.094Z,6.90
2023-04-15T07:02:35.744Z,6.20
2023-04-15T07:05:26.485Z,6.70
2023-04-15T07:08:14.977Z,6.73
2023-04-15T07:11:04.107Z,6.73
2023-04-15T07:13:52.630Z,6.67
2023-04-15T07:16:41.132Z,6.67
2023-04-15T07:19:29.799Z,7.63
2023-04-15T07:22:19.965Z,9.10
2023-04-15T07:25:10.081Z,7.33
2023-04-15T07:27:59.014Z,7.33
2023-04-15T07:30:48.243Z,6.67
2023-04-15T07:33:40.160Z,7.53
2023-04-15T07:36:29.381Z,7.00
2023-04-15T07:39:19.617Z,7.10
2023-04-15T07:42:08.582Z,6.47
2023-04-15T07:45:04.978Z,5.33
2023-04-15T07:47:53.612Z,6.37
2023-04-15T07:50:42.201Z,6.47
2023-04-15T07:53:30.700Z,6.67
2023-04-15T07:56:20.656Z,6.13
2023-04-15T07:59:09.805Z,6.23
2023-04-15T08:01:58.606Z,6.33
2023-04-15T08:04:47.185Z,5.97
2023-04-15T08:07:36.414Z,6.20
2023-04-15T08:10:25.023Z,6.50
2023-04-15T08:13:14.938Z,7.63
2023-04-15T08:16:23.541Z,6.30
2023-04-15T08:19:12.118Z,6.43
2023-04-15T08:22:00.672Z,6.00
2023-04-15T08:24:49.263Z,7.03
2023-04-15T08:27:37.772Z,6.17
2023-04-15T08:30:28.009Z,6.23
2023-04-15T08:33:16.605Z,6.07
2023-04-15T08:36:05.995Z,6.87
2023-04-15T08:38:54.436Z,6.87
2023-04-15T08:41:57.179Z,8.07
2023-04-15T08:44:47.663Z,6.23
2023-04-15T08:47:39.695Z,6.07
2023-04-15T08:50:31.605Z,6.90
2023-04-15T08:53:20.242Z,6.70
2023-04-15T08:56:13.671Z,5.40
2023-04-15T08:59:03.725Z,5.97
2023-04-15T09:01:53.087Z,5.43
2023-04-15T09:04:42.915Z,6.40
2023-04-15T09:07:31.438Z,6.47
2023-04-15T09:10:20.179Z,5.83
2023-04-15T09:13:09.334Z,6.00
2023-04-15T09:15:58.349Z,5.47
2023-04-15T09:18:46.940Z,5.63
2023-04-15T09:21:36.806Z,5.83
2023-04-15T09:24:26.105Z,5.13
2023-04-15T09:27:17.860Z,5.53
2023-04-15T09:30:11.235Z,6.10
2023-04-15T09:33:02.280Z,4.33
2023-04-15T09:36:00.177Z,5.70
2023-04-15T09:38:58.332Z,4.97
2023-04-15T09:41:47.118Z,4.87
2023-04-15T09:44:35.980Z,5.20
2023-04-15T09:47:32.332Z,4.53
2023-04-15T09:50:21.909Z,5.13
2023-04-15T09:53:11.126Z,4.47
2023-04-15T09:56:02.496Z,4.53
2023-04-15T09:58:58.451Z,4.77
2023-04-15T10:01:47.669Z,4.20
2023-04-15T10:04:41.490Z,4.57
2023-04-15T10:07:30.760Z,4.40
2023-04-15T10:10:20.646Z,4.30
2023-04-15T10:13:11.274Z,4.73
2023-04-15T10:16:04.108Z,4.70
2023-04-15T10:18:59.078Z,5.30
2023-04-15T10:21:48.327Z,4.90
2023-04-15T10:24:37.315Z,4.17
2023-04-15T10:27:26.815Z,4.43
2023-04-15T10:30:17.880Z,4.63
2023-04-15T10:33:07.711Z,3.70
2023-04-15T10:35:57.621Z,4.60
2023-04-15T10:38:49.917Z,3.83
2023-04-15T10:41:38.591Z,4.30
2023-04-15T10:44:27.593Z,3.92
2023-04-15T10:47:20.161Z,4.20
2023-04-15T10:50:09.744Z,4.18
2023-04-15T10:52:59.207Z,4.28
2023-04-15T10:55:47.695Z,4.22
2023-04-15T10:58:43.987Z,4.47
2023-04-15T11:02:04.457Z,4.25
2023-04-15T11:04:56.247Z,3.83
2023-04-15T11:07:55.379Z,3.13
2023-04-15T11:10:57.373Z,3.72
2023-04-15T11:13:51.778Z,4.25
2023-04-15T11:16:44.831Z,4.05
2023-04-15T11:19:39.925Z,3.50
2023-04-15T11:22:29.787Z,4.15
2023-04-15T11:25:25.011Z,3.30
2023-04-15T11:28:14.751Z,3.40
2023-04-15T11:31:10.922Z,3.40
2023-04-15T11:34:02.657Z,4.00
2023-04-15T11:36:51.826Z,3.33
2023-04-15T11:39:42.810Z,3.00
2023-04-15T11:42:42.783Z,3.72
2023-04-15T11:45:38.483Z,3.20
2023-04-15T11:48:29.021Z,3.30
2023-04-15T11:51:17.556Z,3.58
2023-04-15T11:54:06.345Z,2.47
2023-04-15T11:56:57.309Z,3.55
2023-04-15T11:59:46.383Z,2.92
2023-04-15T12:02:38.548Z,2.67
2023-04-15T12:05:27.258Z,3.30
2023-04-15T12:08:15.694Z,3.22
2023-04-15T12:11:04.250Z,2.95
2023-04-15T12:13:57.319Z,3.20
2023-04-15T12:16:49.953Z,3.30
2023-04-15T12:19:45.314Z,3.00
2023-04-15T12:22:39.211Z,2.85
2023-04-15T12:25:36.398Z,2.88
2023-04-15T12:28:24.862Z,2.65
2023-04-15T12:31:16.045Z,3.00
2023-04-15T12:34:08.646Z,2.65
2023-04-15T12:36:58.821Z,2.85
2023-04-15T12:39:50.504Z,2.72
2023-04-15T12:42:39.079Z,2.53
2023-04-15T12:45:29.483Z,2.72
2023-04-15T12:48:20.410Z,2.40
2023-04-15T12:51:09.284Z,2.55
2023-04-15T12:53:58.051Z,2.35
2023-04-15T12:56:47.483Z,2.50
2023-04-15T12:59:36.129Z,2.28
2023-04-15T13:02:29.553Z,2.10
2023-04-15T13:05:19.520Z,2.20
2023-04-15T13:08:08.239Z,2.10
2023-04-15T13:10:57.191Z,1.95
2023-04-15T13:13:46.030Z,1.70
2023-04-15T13:16:35.811Z,1.77
2023-04-15T13:19:24.371Z,2.13
2023-04-15T13:22:15.127Z,2.13
2023-04-15T13:25:03.574Z,1.90
2023-04-15T13:27:52.250Z,2.13
2023-04-15T13:30:41.110Z,2.47
2023-04-15T13:33:30.155Z,1.67
2023-04-15T13:36:18.681Z,2.10
2023-04-15T13:39:08.783Z,2.33
2023-04-15T13:41:57.453Z,1.92
2023-04-15T13:44:46.081Z,2.30
2023-04-15T13:47:34.604Z,1.90
2023-04-15T13:50:26.235Z,1.45
2023-04-15T13:53:14.745Z,1.58
2023-04-15T13:56:05.764Z,1.77
2023-04-15T13:58:54.803Z,2.00
2023-04-15T14:01:43.793Z,1.83
2023-04-15T14:04:33.348Z,1.60
2023-04-15T14:07:21.880Z,1.85
2023-04-15T14:10:10.636Z,1.80
2023-04-15T14:13:00.383Z,1.65
2023-04-15T14:15:48.854Z,1.90
2023-04-15T14:18:38.274Z,1.40
2023-04-15T14:21:27.845Z,1.60
2023-04-15T14:24:16.575Z,1.90
2023-04-15T14:27:05.303Z,2.20
2023-04-15T14:29:55.615Z,4.50
2023-04-15T14:32:44.185Z,2.70
2023-04-15T14:35:32.915Z,1.60
2023-04-15T14:38:22.676Z,2.08
2023-04-15T14:41:12.153Z,1.85
2023-04-15T14:44:00.709Z,1.55
2023-04-15T14:46:50.584Z,1.40
2023-04-15T14:49:39.416Z,1.65
2023-04-15T14:52:27.824Z,2.30
2023-04-15T14:55:16.512Z,2.15
2023-04-15T14:58:05.126Z,1.63
2023-04-15T15:00:53.794Z,2.00
2023-04-15T15:03:43.783Z,1.77
2023-04-15T15:06:32.538Z,1.80
2023-04-15T15:09:23.786Z,1.63
2023-04-15T15:12:12.706Z,1.85
2023-04-15T15:15:03.038Z,1.77
2023-04-15T15:17:55.343Z,1.52
2023-04-15T15:20:45.688Z,1.55
2023-04-15T15:24:50.986Z,2.10
2023-04-15T15:27:40.094Z,1.90
2023-04-15T15:31:00.172Z,1.70
2023-04-15T15:33:49.126Z,1.83
2023-04-15T15:36:39.127Z,1.98
2023-04-15T15:43:39.711Z,1.50
2023-04-15T15:46:35.254Z,1.50
2023-04-15T15:49:25.409Z,1.40
2023-04-15T15:52:28.974Z,1.35
2023-04-15T15:55:17.668Z,1.35
2023-04-15T15:58:06.174Z,1.35
2023-04-15T16:01:16.932Z,1.50
2023-04-15T16:04:05.934Z,1.33
2023-04-15T16:06:55.129Z,1.33
2023-04-15T16:09:45.270Z,1.60
2023-04-15T16:12:36.642Z,1.33
2023-04-15T16:15:55.397Z,1.40
2023-04-15T16:18:44.158Z,1.27
2023-04-15T16:21:52.996Z,1.45
2023-04-15T16:24:41.709Z,0.98
2023-04-15T16:27:54.665Z,1.45
2023-04-15T16:30:47.851Z,1.10
2023-04-15T16:33:36.373Z,1.33
2023-04-15T16:36:24.836Z,1.40
2023-04-15T16:39:13.407Z,1.40
2023-04-15T16:42:02.426Z,1.70
2023-04-15T16:44:52.564Z,1.43
2023-04-15T16:47:43.172Z,1.57
2023-04-15T16:50:31.663Z,2.43
2023-04-15T16:53:20.258Z,1.98
2023-04-15T16:56:09.211Z,2.20
2023-04-15T16:58:57.726Z,2.10
2023-04-15T17:01:47.899Z,2.83
2023-04-15T17:04:36.859Z,2.70
2023-04-15T17:07:25.501Z,2.00
2023-04-15T17:10:14.773Z,2.77
2023-04-15T17:13:03.295Z,2.20
2023-04-15T17:15:55.865Z,2.93
2023-04-15T17:18:47.271Z,2.30
2023-04-15T17:21:36.528Z,2.60
2023-04-15T17:24:25.060Z,2.47
2023-04-15T17:27:13.535Z,2.33
2023-04-15T17:30:02.031Z,2.30
2023-04-15T17:32:52.349Z,2.85
2023-04-15T17:35:42.198Z,3.03
2023-04-15T17:38:30.681Z,2.57
2023-04-15T17:41:19.222Z,2.53
2023-04-15T17:44:07.732Z,3.30
2023-04-15T17:46:56.256Z,3.10
2023-04-15T17:49:45.382Z,2.90
2023-04-15T17:52:35.821Z,2.77
2023-04-15T17:55:24.321Z,2.47
2023-04-15T17:58:12.853Z,3.05
2023-04-15T18:01:01.312Z,2.42
2023-04-15T18:03:50.186Z,2.40
2023-04-15T18:06:38.866Z,2.70
2023-04-15T18:09:28.806Z,2.70
2023-04-15T18:12:17.417Z,1.83
2023-04-15T18:15:07.298Z,2.63
2023-04-15T18:17:55.759Z,3.30
2023-04-15T18:20:44.420Z,3.03
2023-04-15T18:23:34.896Z,2.57
2023-04-15T18:26:24.736Z,2.35
2023-04-15T18:29:13.273Z,2.50
2023-04-15T18:32:03.164Z,3.17
2023-04-15T18:34:51.876Z,2.40
2023-04-15T18:37:40.724Z,2.92
2023-04-15T18:40:29.229Z,2.70
2023-04-15T18:43:19.154Z,2.20
2023-04-15T18:46:11.749Z,2.60
2023-04-15T18:49:00.591Z,2.90
2023-04-15T18:51:49.015Z,4.20
2023-04-15T18:54:38.022Z,3.17
2023-04-15T18:57:31.562Z,3.07
2023-04-15T19:00:22.940Z,3.17
2023-04-15T19:03:12.426Z,2.67
2023-04-15T19:06:01.479Z,3.43
2023-04-15T19:08:50.052Z,3.37
2023-04-15T19:11:39.082Z,3.13
2023-04-15T19:14:27.581Z,3.50
2023-04-15T19:17:17.481Z,3.10
2023-04-15T19:20:07.183Z,2.50
2023-04-15T19:22:56.188Z,2.60
2023-04-15T19:25:45.769Z,3.13
2023-04-15T19:28:34.191Z,3.27
2023-04-15T19:31:22.614Z,3.40
2023-04-15T19:34:12.508Z,3.00
2023-04-15T19:37:01.113Z,3.13
2023-04-15T19:39:49.661Z,3.23
2023-04-15T19:42:38.298Z,2.50
2023-04-15T19:45:26.935Z,3.27
2023-04-15T19:48:15.496Z,3.50
2023-04-15T19:51:05.643Z,3.50
2023-04-15T19:53:56.050Z,3.40
2023-04-15T19:56:44.578Z,2.80
2023-04-15T19:59:33.188Z,2.60
2023-04-15T20:02:22.218Z,3.63
2023-04-15T20:05:10.907Z,3.10
2023-04-15T20:08:02.114Z,3.60
2023-04-15T20:10:50.877Z,4.50
2023-04-15T20:13:39.380Z,3.97
2023-04-15T20:16:28.514Z,3.73
2023-04-15T20:19:17.052Z,3.40
2023-04-15T20:22:07.557Z,3.20
2023-04-15T20:24:57.328Z,4.40
2023-04-15T20:27:45.872Z,3.67
2023-04-15T20:30:34.502Z,4.50
2023-04-15T20:33:24.622Z,4.13
2023-04-15T20:36:13.112Z,4.90
2023-04-15T20:39:01.671Z,4.73
2023-04-15T20:41:51.548Z,4.40
2023-04-15T20:44:40.184Z,4.67
2023-04-15T20:47:28.672Z,3.87
2023-04-15T20:50:17.220Z,4.50
2023-04-15T20:53:05.821Z,4.93
2023-04-15T20:55:54.267Z,4.90
2023-04-15T20:58:44.005Z,4.63
2023-04-15T21:01:32.466Z,3.80
2023-04-15T21:04:22.018Z,5.03
2023-04-15T21:07:10.875Z,4.97
2023-04-15T21:09:59.288Z,5.13
2023-04-15T21:12:47.611Z,4.70
2023-04-15T21:15:37.311Z,6.17
2023-04-15T21:18:25.712Z,4.47
2023-04-15T21:21:14.072Z,5.77
2023-04-15T21:24:02.526Z,5.10
2023-04-15T21:26:51.084Z,5.40
2023-04-15T21:29:40.345Z,6.10
2023-04-15T21:32:30.516Z,4.80
2023-04-15T21:35:19.006Z,5.30
2023-04-15T21:38:07.442Z,4.87
2023-04-15T21:40:55.837Z,5.80
2023-04-15T21:43:44.179Z,5.37
2023-04-15T21:46:35.648Z,5.47
2023-04-15T21:49:25.791Z,6.23
2023-04-15T21:52:14.159Z,5.93
2023-04-15T21:55:02.575Z,6.60
2023-04-15T21:57:51.195Z,5.50
2023-04-15T22:00:40.833Z,6.03
2023-04-15T22:03:33.399Z,5.60
2023-04-15T22:06:23.713Z,5.83
2023-04-15T22:09:14.180Z,5.43
2023-04-15T22:12:05.458Z,5.37
2023-04-15T22:14:53.879Z,6.10
2023-04-15T22:17:42.241Z,7.17
2023-04-15T22:20:30.727Z,6.10
2023-04-15T22:23:20.831Z,7.27
2023-04-15T22:26:09.636Z,7.77
2023-04-15T22:28:58.169Z,6.50
2023-04-15T22:31:46.791Z,6.33
2023-04-15T22:34:36.356Z,6.47
2023-04-15T22:37:25.132Z,6.60
2023-04-15T22:40:15.926Z,7.80
2023-04-15T22:43:04.411Z,6.60
2023-04-15T22:45:54.746Z,6.10
2023-04-15T22:48:43.401Z,6.17
2023-04-15T22:51:32.775Z,6.30
2023-04-15T22:54:21.231Z,6.40
2023-04-15T22:57:11.004Z,6.23
2023-04-15T22:59:59.662Z,6.80
2023-04-15T23:02:48.125Z,7.27
2023-04-15T23:05:36.696Z,6.10
2023-04-15T23:08:25.319Z,7.77
2023-04-15T23:11:14.145Z,6.40
2023-04-15T23:14:03.961Z,6.50
2023-04-15T23:16:52.524Z,6.57
2023-04-15T23:19:41.125Z,6.50
2023-04-15T23:22:29.622Z,7.63
2023-04-15T23:25:19.415Z,6.93
2023-04-15T23:28:07.814Z,6.83
2023-04-15T23:31:00.467Z,6.60
2023-04-15T23:33:49.391Z,7.00
2023-04-15T23:36:38.233Z,7.47
2023-04-15T23:39:26.713Z,6.30
2023-04-15T23:42:15.242Z,6.10
2023-04-15T23:45:03.710Z,6.37
2023-04-15T23:47:53.934Z,6.20
2023-04-15T23:50:42.626Z,6.83
2023-04-15T23:53:31.141Z,7.17
2023-04-15T23:56:19.837Z,6.53
2023-04-15T23:59:08.622Z,6.97
